sensor_id;sensor_type;location;lat;lon;timestamp;temperature;humidity
45969;DHT22;31676;40.444;-3.668;2022-10-17T00:01:39;24.90;74.00
45969;DHT22;31676;40.444;-3.668;2022-10-17T00:04:05;24.90;74.00
45969;DHT22;31676;40.444;-3.668;2022-10-17T00:06:31;24.90;74.00
45969;DHT22;31676;40.444;-3.668;2022-10-17T00:08:56;24.90;74.00
45969;DHT22;31676;40.444;-3.668;2022-10-17T00:11:22;24.90;74.00
45969;DHT22;31676;40.444;-3.668;2022-10-17T00:13:49;24.90;74.00
45969;DHT22;31676;40.444;-3.668;2022-10-17T00:16:18;24.90;74.00
45969;DHT22;31676;40.444;-3.668;2022-10-17T00:18:47;24.90;74.00
45969;DHT22;31676;40.444;-3.668;2022-10-17T00:21:16;24.90;74.00
45969;DHT22;31676;40.444;-3.668;2022-10-17T00:23:42;24.90;74.00
45969;DHT22;31676;40.444;-3.668;2022-10-17T00:26:08;24.90;74.00
45969;DHT22;31676;40.444;-3.668;2022-10-17T00:28:33;24.90;74.00
45969;DHT22;31676;40.444;-3.668;2022-10-17T00:31:00;24.90;74.00
45969;DHT22;31676;40.444;-3.668;2022-10-17T00:33:27;24.90;74.00
45969;DHT22;31676;40.444;-3.668;2022-10-17T00:36:03;24.90;74.00
45969;DHT22;31676;40.444;-3.668;2022-10-17T00:38:28;24.90;74.00
45969;DHT22;31676;40.444;-3.668;2022-10-17T00:40:54;24.90;74.00
45969;DHT22;31676;40.444;-3.668;2022-10-17T00:43:20;24.90;74.00
45969;DHT22;31676;40.444;-3.668;2022-10-17T00:45:45;24.90;74.00
45969;DHT22;31676;40.444;-3.668;2022-10-17T00:48:11;24.90;74.00
45969;DHT22;31676;40.444;-3.668;2022-10-17T00:50:38;24.90;74.00
45969;DHT22;31676;40.444;-3.668;2022-10-17T00:53:04;24.90;74.00
45969;DHT22;31676;40.444;-3.668;2022-10-17T00:55:31;24.90;74.00
45969;DHT22;31676;40.444;-3.668;2022-10-17T00:57:58;24.90;74.00
45969;DHT22;31676;40.444;-3.668;2022-10-17T01:00:24;24.90;73.90
45969;DHT22;31676;40.444;-3.668;2022-10-17T01:02:50;24.90;74.00
45969;DHT22;31676;40.444;-3.668;2022-10-17T01:05:16;24.90;74.00
45969;DHT22;31676;40.444;-3.668;2022-10-17T01:07:43;24.90;74.00
45969;DHT22;31676;40.444;-3.668;2022-10-17T01:10:10;24.90;74.00
45969;DHT22;31676;40.444;-3.668;2022-10-17T01:17:44;24.90;74.00
45969;DHT22;31676;40.444;-3.668;2022-10-17T01:30:54;24.90;74.00
45969;DHT22;31676;40.444;-3.668;2022-10-17T01:33:27;24.90;74.00
45969;DHT22;31676;40.444;-3.668;2022-10-17T01:35:57;24.90;74.00
45969;DHT22;31676;40.444;-3.668;2022-10-17T01:38:29;24.90;74.00
45969;DHT22;31676;40.444;-3.668;2022-10-17T01:41:01;24.90;74.00
45969;DHT22;31676;40.444;-3.668;2022-10-17T01:43:36;24.90;74.00
45969;DHT22;31676;40.444;-3.668;2022-10-17T01:48:36;24.80;73.90
45969;DHT22;31676;40.444;-3.668;2022-10-17T01:51:10;24.90;74.00
45969;DHT22;31676;40.444;-3.668;2022-10-17T01:53:39;24.90;74.00
45969;DHT22;31676;40.444;-3.668;2022-10-17T01:56:07;24.90;74.00
45969;DHT22;31676;40.444;-3.668;2022-10-17T01:58:38;24.90;74.00
45969;DHT22;31676;40.444;-3.668;2022-10-17T02:01:05;24.80;74.00
45969;DHT22;31676;40.444;-3.668;2022-10-17T02:03:32;24.90;74.00
45969;DHT22;31676;40.444;-3.668;2022-10-17T02:05:59;24.90;74.00
45969;DHT22;31676;40.444;-3.668;2022-10-17T02:08:28;24.80;74.00
45969;DHT22;31676;40.444;-3.668;2022-10-17T02:10:59;24.80;74.20
45969;DHT22;31676;40.444;-3.668;2022-10-17T02:16:14;24.90;74.00
45969;DHT22;31676;40.444;-3.668;2022-10-17T02:21:36;24.80;74.00
45969;DHT22;31676;40.444;-3.668;2022-10-17T02:26:51;24.80;74.00
45969;DHT22;31676;40.444;-3.668;2022-10-17T02:29:18;24.90;74.00
45969;DHT22;31676;40.444;-3.668;2022-10-17T02:31:46;24.90;74.00
45969;DHT22;31676;40.444;-3.668;2022-10-17T02:37:11;24.80;74.00
45969;DHT22;31676;40.444;-3.668;2022-10-17T02:39:39;24.90;74.10
45969;DHT22;31676;40.444;-3.668;2022-10-17T02:42:06;24.90;74.00
45969;DHT22;31676;40.444;-3.668;2022-10-17T02:44:33;24.80;74.00
45969;DHT22;31676;40.444;-3.668;2022-10-17T02:47:04;24.80;74.00
45969;DHT22;31676;40.444;-3.668;2022-10-17T02:49:33;24.80;74.00
45969;DHT22;31676;40.444;-3.668;2022-10-17T02:52:11;24.80;74.00
45969;DHT22;31676;40.444;-3.668;2022-10-17T02:54:40;24.80;74.00
45969;DHT22;31676;40.444;-3.668;2022-10-17T02:57:09;24.80;74.00
45969;DHT22;31676;40.444;-3.668;2022-10-17T02:59:36;24.80;74.00
45969;DHT22;31676;40.444;-3.668;2022-10-17T03:02:03;24.90;74.10
45969;DHT22;31676;40.444;-3.668;2022-10-17T03:04:29;24.80;74.00
45969;DHT22;31676;40.444;-3.668;2022-10-17T03:06:55;24.80;74.00
45969;DHT22;31676;40.444;-3.668;2022-10-17T03:09:21;24.80;74.00
45969;DHT22;31676;40.444;-3.668;2022-10-17T03:11:46;24.80;74.00
45969;DHT22;31676;40.444;-3.668;2022-10-17T03:14:12;24.80;74.00
45969;DHT22;31676;40.444;-3.668;2022-10-17T03:16:37;24.80;74.00
45969;DHT22;31676;40.444;-3.668;2022-10-17T03:19:03;24.80;74.00
45969;DHT22;31676;40.444;-3.668;2022-10-17T03:21:29;24.80;74.00
45969;DHT22;31676;40.444;-3.668;2022-10-17T03:23:55;24.80;74.00
45969;DHT22;31676;40.444;-3.668;2022-10-17T03:26:20;24.80;74.00
45969;DHT22;31676;40.444;-3.668;2022-10-17T03:28:46;24.80;74.00
45969;DHT22;31676;40.444;-3.668;2022-10-17T03:31:13;24.80;74.00
45969;DHT22;31676;40.444;-3.668;2022-10-17T03:33:39;24.80;74.00
45969;DHT22;31676;40.444;-3.668;2022-10-17T03:36:08;24.80;74.00
45969;DHT22;31676;40.444;-3.668;2022-10-17T03:38:34;24.80;74.00
45969;DHT22;31676;40.444;-3.668;2022-10-17T03:41:00;24.80;74.00
45969;DHT22;31676;40.444;-3.668;2022-10-17T03:43:26;24.80;74.00
45969;DHT22;31676;40.444;-3.668;2022-10-17T03:45:52;24.80;74.00
45969;DHT22;31676;40.444;-3.668;2022-10-17T03:48:17;24.80;74.00
45969;DHT22;31676;40.444;-3.668;2022-10-17T03:50:43;24.80;74.00
45969;DHT22;31676;40.444;-3.668;2022-10-17T03:53:09;24.80;74.00
45969;DHT22;31676;40.444;-3.668;2022-10-17T03:55:34;24.80;74.10
45969;DHT22;31676;40.444;-3.668;2022-10-17T03:58:00;24.80;74.70
45969;DHT22;31676;40.444;-3.668;2022-10-17T04:00:25;24.80;74.00
45969;DHT22;31676;40.444;-3.668;2022-10-17T04:02:51;24.80;74.00
45969;DHT22;31676;40.444;-3.668;2022-10-17T04:05:17;24.80;74.00
45969;DHT22;31676;40.444;-3.668;2022-10-17T04:07:42;24.80;74.10
45969;DHT22;31676;40.444;-3.668;2022-10-17T04:10:08;24.80;74.10
45969;DHT22;31676;40.444;-3.668;2022-10-17T04:12:34;24.80;74.10
45969;DHT22;31676;40.444;-3.668;2022-10-17T04:14:59;24.80;74.10
45969;DHT22;31676;40.444;-3.668;2022-10-17T04:17:25;24.80;74.10
45969;DHT22;31676;40.444;-3.668;2022-10-17T04:19:51;24.80;74.10
45969;DHT22;31676;40.444;-3.668;2022-10-17T04:22:16;24.80;74.10
45969;DHT22;31676;40.444;-3.668;2022-10-17T04:24:42;24.80;74.10
45969;DHT22;31676;40.444;-3.668;2022-10-17T04:27:09;24.80;74.10
45969;DHT22;31676;40.444;-3.668;2022-10-17T04:29:34;24.80;74.10
45969;DHT22;31676;40.444;-3.668;2022-10-17T04:32:00;24.80;74.10
45969;DHT22;31676;40.444;-3.668;2022-10-17T04:34:25;24.80;74.10
45969;DHT22;31676;40.444;-3.668;2022-10-17T04:36:51;24.80;74.10
45969;DHT22;31676;40.444;-3.668;2022-10-17T04:39:17;24.80;74.10
45969;DHT22;31676;40.444;-3.668;2022-10-17T04:41:42;24.80;74.10
45969;DHT22;31676;40.444;-3.668;2022-10-17T04:44:09;24.80;74.10
45969;DHT22;31676;40.444;-3.668;2022-10-17T04:46:35;24.80;74.10
45969;DHT22;31676;40.444;-3.668;2022-10-17T04:49:01;24.80;74.10
45969;DHT22;31676;40.444;-3.668;2022-10-17T04:51:26;24.80;74.20
45969;DHT22;31676;40.444;-3.668;2022-10-17T04:53:52;24.80;74.10
45969;DHT22;31676;40.444;-3.668;2022-10-17T04:56:19;24.70;74.10
45969;DHT22;31676;40.444;-3.668;2022-10-17T04:58:45;24.70;74.10
45969;DHT22;31676;40.444;-3.668;2022-10-17T05:01:12;24.70;74.10
45969;DHT22;31676;40.444;-3.668;2022-10-17T05:03:39;24.70;74.10
45969;DHT22;31676;40.444;-3.668;2022-10-17T05:06:05;24.80;74.10
45969;DHT22;31676;40.444;-3.668;2022-10-17T05:08:31;24.70;74.10
45969;DHT22;31676;40.444;-3.668;2022-10-17T05:10:57;24.70;74.10
45969;DHT22;31676;40.444;-3.668;2022-10-17T05:13:23;24.70;74.10
45969;DHT22;31676;40.444;-3.668;2022-10-17T05:15:48;24.70;74.10
45969;DHT22;31676;40.444;-3.668;2022-10-17T05:18:14;24.70;74.10
45969;DHT22;31676;40.444;-3.668;2022-10-17T05:20:40;24.70;74.10
45969;DHT22;31676;40.444;-3.668;2022-10-17T05:23:05;24.70;74.10
45969;DHT22;31676;40.444;-3.668;2022-10-17T05:25:31;24.70;74.10
45969;DHT22;31676;40.444;-3.668;2022-10-17T05:27:57;24.70;74.10
45969;DHT22;31676;40.444;-3.668;2022-10-17T05:30:22;24.70;74.10
45969;DHT22;31676;40.444;-3.668;2022-10-17T05:32:52;24.80;74.20
45969;DHT22;31676;40.444;-3.668;2022-10-17T05:35:19;24.70;74.10
45969;DHT22;31676;40.444;-3.668;2022-10-17T05:37:44;24.70;74.10
45969;DHT22;31676;40.444;-3.668;2022-10-17T05:40:10;24.70;74.10
45969;DHT22;31676;40.444;-3.668;2022-10-17T05:42:36;24.70;74.10
45969;DHT22;31676;40.444;-3.668;2022-10-17T05:45:02;24.70;74.10
45969;DHT22;31676;40.444;-3.668;2022-10-17T05:47:28;24.70;74.10
45969;DHT22;31676;40.444;-3.668;2022-10-17T05:49:53;24.70;74.10
45969;DHT22;31676;40.444;-3.668;2022-10-17T05:52:19;24.70;74.10
45969;DHT22;31676;40.444;-3.668;2022-10-17T05:54:45;24.70;74.20
45969;DHT22;31676;40.444;-3.668;2022-10-17T05:57:10;24.70;74.10
45969;DHT22;31676;40.444;-3.668;2022-10-17T05:59:36;24.70;74.10
45969;DHT22;31676;40.444;-3.668;2022-10-17T06:02:02;24.70;74.10
45969;DHT22;31676;40.444;-3.668;2022-10-17T06:04:27;24.70;74.10
45969;DHT22;31676;40.444;-3.668;2022-10-17T06:06:53;24.70;74.10
45969;DHT22;31676;40.444;-3.668;2022-10-17T06:09:21;24.70;74.20
45969;DHT22;31676;40.444;-3.668;2022-10-17T06:11:46;24.70;74.20
45969;DHT22;31676;40.444;-3.668;2022-10-17T06:14:12;24.70;74.20
45969;DHT22;31676;40.444;-3.668;2022-10-17T06:16:37;24.70;74.10
45969;DHT22;31676;40.444;-3.668;2022-10-17T06:19:03;24.70;74.20
45969;DHT22;31676;40.444;-3.668;2022-10-17T06:21:29;24.70;74.20
45969;DHT22;31676;40.444;-3.668;2022-10-17T06:23:58;24.70;74.20
45969;DHT22;31676;40.444;-3.668;2022-10-17T06:26:24;24.70;74.10
45969;DHT22;31676;40.444;-3.668;2022-10-17T06:28:49;24.70;74.20
45969;DHT22;31676;40.444;-3.668;2022-10-17T06:31:16;24.70;74.20
45969;DHT22;31676;40.444;-3.668;2022-10-17T06:33:41;24.70;74.20
45969;DHT22;31676;40.444;-3.668;2022-10-17T06:36:09;24.70;74.20
45969;DHT22;31676;40.444;-3.668;2022-10-17T06:38:35;24.70;74.20
45969;DHT22;31676;40.444;-3.668;2022-10-17T06:41:11;24.60;74.10
45969;DHT22;31676;40.444;-3.668;2022-10-17T06:43:38;24.60;74.10
45969;DHT22;31676;40.444;-3.668;2022-10-17T06:46:04;24.70;74.20
45969;DHT22;31676;40.444;-3.668;2022-10-17T06:48:31;24.70;74.20
45969;DHT22;31676;40.444;-3.668;2022-10-17T06:51:03;24.60;74.10
45969;DHT22;31676;40.444;-3.668;2022-10-17T06:53:29;24.60;74.10
45969;DHT22;31676;40.444;-3.668;2022-10-17T06:55:55;24.60;74.10
45969;DHT22;31676;40.444;-3.668;2022-10-17T06:58:26;24.70;74.20
45969;DHT22;31676;40.444;-3.668;2022-10-17T07:00:56;24.60;74.20
45969;DHT22;31676;40.444;-3.668;2022-10-17T07:03:22;24.60;74.10
45969;DHT22;31676;40.444;-3.668;2022-10-17T07:05:51;24.70;74.20
45969;DHT22;31676;40.444;-3.668;2022-10-17T07:08:17;24.60;74.10
45969;DHT22;31676;40.444;-3.668;2022-10-17T07:10:44;24.60;74.10
45969;DHT22;31676;40.444;-3.668;2022-10-17T07:13:10;24.60;74.10
45969;DHT22;31676;40.444;-3.668;2022-10-17T07:15:36;24.60;74.10
45969;DHT22;31676;40.444;-3.668;2022-10-17T07:18:02;24.60;74.10
45969;DHT22;31676;40.444;-3.668;2022-10-17T07:20:27;24.60;74.10
45969;DHT22;31676;40.444;-3.668;2022-10-17T07:22:53;24.60;74.10
45969;DHT22;31676;40.444;-3.668;2022-10-17T07:25:18;24.60;74.10
45969;DHT22;31676;40.444;-3.668;2022-10-17T07:27:44;24.60;74.10
45969;DHT22;31676;40.444;-3.668;2022-10-17T07:30:10;24.60;74.20
45969;DHT22;31676;40.444;-3.668;2022-10-17T07:32:36;24.60;74.10
45969;DHT22;31676;40.444;-3.668;2022-10-17T07:35:01;24.60;74.10
45969;DHT22;31676;40.444;-3.668;2022-10-17T07:37:27;24.60;74.20
45969;DHT22;31676;40.444;-3.668;2022-10-17T07:39:53;24.60;74.20
45969;DHT22;31676;40.444;-3.668;2022-10-17T07:42:20;24.60;74.20
45969;DHT22;31676;40.444;-3.668;2022-10-17T07:44:46;24.60;74.20
45969;DHT22;31676;40.444;-3.668;2022-10-17T07:47:12;24.60;74.20
45969;DHT22;31676;40.444;-3.668;2022-10-17T07:49:38;24.60;74.20
45969;DHT22;31676;40.444;-3.668;2022-10-17T07:52:12;24.60;74.20
45969;DHT22;31676;40.444;-3.668;2022-10-17T07:54:37;24.60;74.20
45969;DHT22;31676;40.444;-3.668;2022-10-17T07:57:03;24.60;74.10
45969;DHT22;31676;40.444;-3.668;2022-10-17T07:59:29;24.60;74.10
45969;DHT22;31676;40.444;-3.668;2022-10-17T08:01:55;24.60;74.20
45969;DHT22;31676;40.444;-3.668;2022-10-17T08:04:21;24.60;74.20
45969;DHT22;31676;40.444;-3.668;2022-10-17T08:06:46;24.60;74.20
45969;DHT22;31676;40.444;-3.668;2022-10-17T08:09:12;24.60;74.20
45969;DHT22;31676;40.444;-3.668;2022-10-17T08:11:38;24.60;74.20
45969;DHT22;31676;40.444;-3.668;2022-10-17T08:14:03;24.60;74.10
45969;DHT22;31676;40.444;-3.668;2022-10-17T08:16:29;24.60;74.20
45969;DHT22;31676;40.444;-3.668;2022-10-17T08:18:55;24.60;74.20
45969;DHT22;31676;40.444;-3.668;2022-10-17T08:21:21;24.60;74.20
45969;DHT22;31676;40.444;-3.668;2022-10-17T08:23:46;24.60;74.20
45969;DHT22;31676;40.444;-3.668;2022-10-17T08:26:12;24.60;74.20
45969;DHT22;31676;40.444;-3.668;2022-10-17T08:28:41;24.60;74.20
45969;DHT22;31676;40.444;-3.668;2022-10-17T08:31:08;24.60;74.20
45969;DHT22;31676;40.444;-3.668;2022-10-17T08:33:34;24.60;74.20
45969;DHT22;31676;40.444;-3.668;2022-10-17T08:36:00;24.60;74.80
45969;DHT22;31676;40.444;-3.668;2022-10-17T08:38:27;24.60;74.80
45969;DHT22;31676;40.444;-3.668;2022-10-17T08:40:54;24.60;74.20
45969;DHT22;31676;40.444;-3.668;2022-10-17T08:45:54;24.60;74.20
45969;DHT22;31676;40.444;-3.668;2022-10-17T08:48:22;24.60;74.20
45969;DHT22;31676;40.444;-3.668;2022-10-17T08:53:28;24.60;74.80
45969;DHT22;31676;40.444;-3.668;2022-10-17T08:55:55;24.60;74.20
45969;DHT22;31676;40.444;-3.668;2022-10-17T09:01:01;24.60;74.20
45969;DHT22;31676;40.444;-3.668;2022-10-17T09:03:45;24.60;74.20
45969;DHT22;31676;40.444;-3.668;2022-10-17T09:06:20;24.60;74.20
45969;DHT22;31676;40.444;-3.668;2022-10-17T09:16:33;24.60;74.20
45969;DHT22;31676;40.444;-3.668;2022-10-17T09:19:03;24.60;74.20
45969;DHT22;31676;40.444;-3.668;2022-10-17T09:24:10;24.60;74.20
45969;DHT22;31676;40.444;-3.668;2022-10-17T09:26:37;24.60;74.20
45969;DHT22;31676;40.444;-3.668;2022-10-17T09:29:04;24.60;74.20
45969;DHT22;31676;40.444;-3.668;2022-10-17T09:31:39;24.60;74.20
45969;DHT22;31676;40.444;-3.668;2022-10-17T09:34:06;24.60;74.20
45969;DHT22;31676;40.444;-3.668;2022-10-17T09:36:34;24.60;74.20
45969;DHT22;31676;40.444;-3.668;2022-10-17T09:39:04;24.60;74.20
45969;DHT22;31676;40.444;-3.668;2022-10-17T09:44:11;24.60;74.20
45969;DHT22;31676;40.444;-3.668;2022-10-17T09:46:38;24.60;74.20
45969;DHT22;31676;40.444;-3.668;2022-10-17T09:49:05;24.60;74.20
45969;DHT22;31676;40.444;-3.668;2022-10-17T09:51:35;24.60;74.20
45969;DHT22;31676;40.444;-3.668;2022-10-17T09:54:10;24.60;74.20
45969;DHT22;31676;40.444;-3.668;2022-10-17T09:56:58;24.60;74.20
45969;DHT22;31676;40.444;-3.668;2022-10-17T09:59:32;24.60;74.20
45969;DHT22;31676;40.444;-3.668;2022-10-17T10:02:06;24.60;74.20
45969;DHT22;31676;40.444;-3.668;2022-10-17T10:04:32;24.60;74.20
45969;DHT22;31676;40.444;-3.668;2022-10-17T10:07:03;24.60;74.20
45969;DHT22;31676;40.444;-3.668;2022-10-17T10:09:30;24.60;74.20
45969;DHT22;31676;40.444;-3.668;2022-10-17T10:11:56;24.60;74.20
45969;DHT22;31676;40.444;-3.668;2022-10-17T10:14:23;24.60;74.20
45969;DHT22;31676;40.444;-3.668;2022-10-17T10:16:53;24.60;74.20
45969;DHT22;31676;40.444;-3.668;2022-10-17T10:21:55;24.60;74.20
45969;DHT22;31676;40.444;-3.668;2022-10-17T10:24:21;24.60;74.20
45969;DHT22;31676;40.444;-3.668;2022-10-17T10:26:48;24.60;74.20
45969;DHT22;31676;40.444;-3.668;2022-10-17T10:29:21;24.70;74.20
45969;DHT22;31676;40.444;-3.668;2022-10-17T10:31:48;24.70;74.20
45969;DHT22;31676;40.444;-3.668;2022-10-17T10:34:15;24.60;74.20
45969;DHT22;31676;40.444;-3.668;2022-10-17T10:36:47;24.70;74.20
45969;DHT22;31676;40.444;-3.668;2022-10-17T10:39:25;24.60;74.10
45969;DHT22;31676;40.444;-3.668;2022-10-17T10:41:51;24.70;74.20
45969;DHT22;31676;40.444;-3.668;2022-10-17T10:44:17;24.70;74.20
45969;DHT22;31676;40.444;-3.668;2022-10-17T10:46:45;24.70;74.20
45969;DHT22;31676;40.444;-3.668;2022-10-17T10:52:06;24.70;74.20
45969;DHT22;31676;40.444;-3.668;2022-10-17T10:54:35;24.70;74.30
45969;DHT22;31676;40.444;-3.668;2022-10-17T10:57:03;24.70;74.30
45969;DHT22;31676;40.444;-3.668;2022-10-17T10:59:35;24.70;74.30
45969;DHT22;31676;40.444;-3.668;2022-10-17T11:02:03;24.70;74.30
45969;DHT22;31676;40.444;-3.668;2022-10-17T11:04:37;24.80;74.30
45969;DHT22;31676;40.444;-3.668;2022-10-17T11:09:42;24.80;74.30
45969;DHT22;31676;40.444;-3.668;2022-10-17T11:12:17;24.80;74.30
45969;DHT22;31676;40.444;-3.668;2022-10-17T11:22:15;24.80;74.20
45969;DHT22;31676;40.444;-3.668;2022-10-17T11:27:07;24.80;74.20
45969;DHT22;31676;40.444;-3.668;2022-10-17T11:29:33;24.80;74.20
45969;DHT22;31676;40.444;-3.668;2022-10-17T11:35:06;24.90;74.20
45969;DHT22;31676;40.444;-3.668;2022-10-17T11:37:39;24.90;74.20
45969;DHT22;31676;40.444;-3.668;2022-10-17T11:40:08;24.90;74.20
45969;DHT22;31676;40.444;-3.668;2022-10-17T11:43:00;24.90;74.20
45969;DHT22;31676;40.444;-3.668;2022-10-17T11:45:25;24.80;74.10
45969;DHT22;31676;40.444;-3.668;2022-10-17T11:47:53;24.90;74.10
45969;DHT22;31676;40.444;-3.668;2022-10-17T11:50:30;24.90;74.10
45969;DHT22;31676;40.444;-3.668;2022-10-17T11:53:13;24.90;74.10
45969;DHT22;31676;40.444;-3.668;2022-10-17T11:55:39;24.90;74.10
45969;DHT22;31676;40.444;-3.668;2022-10-17T11:58:14;24.90;74.00
45969;DHT22;31676;40.444;-3.668;2022-10-17T12:00:42;24.90;74.00
45969;DHT22;31676;40.444;-3.668;2022-10-17T12:03:18;24.90;74.00
45969;DHT22;31676;40.444;-3.668;2022-10-17T12:18:41;25.00;74.00
45969;DHT22;31676;40.444;-3.668;2022-10-17T12:21:06;25.00;73.90
45969;DHT22;31676;40.444;-3.668;2022-10-17T12:23:32;25.00;73.90
45969;DHT22;31676;40.444;-3.668;2022-10-17T12:26:01;25.00;74.00
45969;DHT22;31676;40.444;-3.668;2022-10-17T12:31:09;25.00;74.00
45969;DHT22;31676;40.444;-3.668;2022-10-17T12:38:42;25.10;73.90
45969;DHT22;31676;40.444;-3.668;2022-10-17T12:41:07;25.10;73.90
45969;DHT22;31676;40.444;-3.668;2022-10-17T12:46:06;25.10;73.90
45969;DHT22;31676;40.444;-3.668;2022-10-17T12:50:59;25.10;73.90
45969;DHT22;31676;40.444;-3.668;2022-10-17T12:53:26;25.10;73.80
45969;DHT22;31676;40.444;-3.668;2022-10-17T12:56:00;25.10;73.80
45969;DHT22;31676;40.444;-3.668;2022-10-17T12:58:26;25.10;73.80
45969;DHT22;31676;40.444;-3.668;2022-10-17T13:00:53;25.10;73.80
45969;DHT22;31676;40.444;-3.668;2022-10-17T13:03:24;25.10;73.80
45969;DHT22;31676;40.444;-3.668;2022-10-17T13:05:51;25.10;73.80
45969;DHT22;31676;40.444;-3.668;2022-10-17T13:08:28;25.10;73.80
45969;DHT22;31676;40.444;-3.668;2022-10-17T13:10:54;25.10;73.80
45969;DHT22;31676;40.444;-3.668;2022-10-17T13:15:58;25.10;73.80
45969;DHT22;31676;40.444;-3.668;2022-10-17T13:18:25;25.10;73.80
45969;DHT22;31676;40.444;-3.668;2022-10-17T13:21:03;25.10;73.80
45969;DHT22;31676;40.444;-3.668;2022-10-17T13:23:30;25.10;73.80
45969;DHT22;31676;40.444;-3.668;2022-10-17T13:28:31;25.20;73.90
45969;DHT22;31676;40.444;-3.668;2022-10-17T13:30:56;25.20;73.80
45969;DHT22;31676;40.444;-3.668;2022-10-17T13:33:40;25.20;73.90
45969;DHT22;31676;40.444;-3.668;2022-10-17T13:36:07;25.20;73.80
45969;DHT22;31676;40.444;-3.668;2022-10-17T13:38:37;25.20;73.80
45969;DHT22;31676;40.444;-3.668;2022-10-17T13:41:03;25.20;73.90
45969;DHT22;31676;40.444;-3.668;2022-10-17T13:43:34;25.20;73.80
45969;DHT22;31676;40.444;-3.668;2022-10-17T13:46:01;25.10;73.80
45969;DHT22;31676;40.444;-3.668;2022-10-17T13:48:31;25.20;73.80
45969;DHT22;31676;40.444;-3.668;2022-10-17T13:50:57;25.20;73.80
45969;DHT22;31676;40.444;-3.668;2022-10-17T13:53:25;25.20;73.80
45969;DHT22;31676;40.444;-3.668;2022-10-17T13:58:19;25.20;73.80
45969;DHT22;31676;40.444;-3.668;2022-10-17T14:00:45;25.20;73.80
45969;DHT22;31676;40.444;-3.668;2022-10-17T14:03:11;25.20;73.90
45969;DHT22;31676;40.444;-3.668;2022-10-17T14:08:21;25.20;73.90
45969;DHT22;31676;40.444;-3.668;2022-10-17T14:10:47;25.30;73.90
45969;DHT22;31676;40.444;-3.668;2022-10-17T14:13:29;25.30;73.90
45969;DHT22;31676;40.444;-3.668;2022-10-17T14:15:59;25.30;73.90
45969;DHT22;31676;40.444;-3.668;2022-10-17T14:18:26;25.20;73.80
45969;DHT22;31676;40.444;-3.668;2022-10-17T14:20:53;25.20;73.80
45969;DHT22;31676;40.444;-3.668;2022-10-17T14:24:10;25.30;73.90
45969;DHT22;31676;40.444;-3.668;2022-10-17T14:28:40;25.30;73.90
45969;DHT22;31676;40.444;-3.668;2022-10-17T14:31:10;25.30;73.80
45969;DHT22;31676;40.444;-3.668;2022-10-17T14:33:41;25.30;73.90
45969;DHT22;31676;40.444;-3.668;2022-10-17T14:36:07;25.30;73.90
45969;DHT22;31676;40.444;-3.668;2022-10-17T14:38:33;25.30;73.80
45969;DHT22;31676;40.444;-3.668;2022-10-17T14:41:01;25.30;73.80
45969;DHT22;31676;40.444;-3.668;2022-10-17T14:43:29;25.30;73.80
45969;DHT22;31676;40.444;-3.668;2022-10-17T14:45:58;25.30;73.80
45969;DHT22;31676;40.444;-3.668;2022-10-17T14:48:24;25.30;73.80
45969;DHT22;31676;40.444;-3.668;2022-10-17T14:51:10;25.30;73.80
45969;DHT22;31676;40.444;-3.668;2022-10-17T14:53:36;25.30;73.80
45969;DHT22;31676;40.444;-3.668;2022-10-17T14:56:04;25.30;73.80
45969;DHT22;31676;40.444;-3.668;2022-10-17T14:58:31;25.30;73.80
45969;DHT22;31676;40.444;-3.668;2022-10-17T15:00:57;25.30;73.80
45969;DHT22;31676;40.444;-3.668;2022-10-17T15:03:24;25.30;73.80
45969;DHT22;31676;40.444;-3.668;2022-10-17T15:05:50;25.30;73.80
45969;DHT22;31676;40.444;-3.668;2022-10-17T15:08:18;25.30;73.80
45969;DHT22;31676;40.444;-3.668;2022-10-17T15:10:45;25.30;73.80
45969;DHT22;31676;40.444;-3.668;2022-10-17T15:13:12;25.30;73.80
45969;DHT22;31676;40.444;-3.668;2022-10-17T15:15:38;25.30;73.80
45969;DHT22;31676;40.444;-3.668;2022-10-17T15:18:04;25.30;73.80
45969;DHT22;31676;40.444;-3.668;2022-10-17T15:20:30;25.30;73.80
45969;DHT22;31676;40.444;-3.668;2022-10-17T15:22:57;25.30;73.80
45969;DHT22;31676;40.444;-3.668;2022-10-17T15:25:23;25.30;73.80
45969;DHT22;31676;40.444;-3.668;2022-10-17T15:27:49;25.30;73.80
45969;DHT22;31676;40.444;-3.668;2022-10-17T15:30:17;25.30;73.80
45969;DHT22;31676;40.444;-3.668;2022-10-17T15:32:43;25.30;73.80
45969;DHT22;31676;40.444;-3.668;2022-10-17T15:35:09;25.30;73.80
45969;DHT22;31676;40.444;-3.668;2022-10-17T15:37:35;25.30;73.80
45969;DHT22;31676;40.444;-3.668;2022-10-17T15:40:00;25.30;73.80
45969;DHT22;31676;40.444;-3.668;2022-10-17T15:42:27;25.40;73.90
45969;DHT22;31676;40.444;-3.668;2022-10-17T15:44:53;25.30;73.80
45969;DHT22;31676;40.444;-3.668;2022-10-17T15:49:47;25.30;73.80
45969;DHT22;31676;40.444;-3.668;2022-10-17T15:52:13;25.40;73.90
45969;DHT22;31676;40.444;-3.668;2022-10-17T15:54:38;25.40;73.90
45969;DHT22;31676;40.444;-3.668;2022-10-17T15:57:05;25.40;73.90
45969;DHT22;31676;40.444;-3.668;2022-10-17T15:59:31;25.30;73.80
45969;DHT22;31676;40.444;-3.668;2022-10-17T16:01:58;25.40;73.90
45969;DHT22;31676;40.444;-3.668;2022-10-17T16:04:23;25.30;73.80
45969;DHT22;31676;40.444;-3.668;2022-10-17T16:06:51;25.40;73.90
45969;DHT22;31676;40.444;-3.668;2022-10-17T16:09:17;25.30;73.80
45969;DHT22;31676;40.444;-3.668;2022-10-17T16:11:43;25.30;73.80
45969;DHT22;31676;40.444;-3.668;2022-10-17T16:14:10;25.40;73.90
45969;DHT22;31676;40.444;-3.668;2022-10-17T16:16:36;25.40;73.90
45969;DHT22;31676;40.444;-3.668;2022-10-17T16:19:02;25.40;73.90
45969;DHT22;31676;40.444;-3.668;2022-10-17T16:21:33;25.40;73.90
45969;DHT22;31676;40.444;-3.668;2022-10-17T16:24:00;25.40;73.90
45969;DHT22;31676;40.444;-3.668;2022-10-17T16:26:26;25.30;73.80
45969;DHT22;31676;40.444;-3.668;2022-10-17T16:28:51;25.40;73.90
45969;DHT22;31676;40.444;-3.668;2022-10-17T16:33:47;25.40;73.90
45969;DHT22;31676;40.444;-3.668;2022-10-17T16:36:12;25.30;73.90
45969;DHT22;31676;40.444;-3.668;2022-10-17T16:38:38;25.40;73.90
45969;DHT22;31676;40.444;-3.668;2022-10-17T16:41:07;25.40;73.90
45969;DHT22;31676;40.444;-3.668;2022-10-17T16:43:38;25.40;73.90
45969;DHT22;31676;40.444;-3.668;2022-10-17T16:46:04;25.40;73.90
45969;DHT22;31676;40.444;-3.668;2022-10-17T16:48:30;25.40;73.90
45969;DHT22;31676;40.444;-3.668;2022-10-17T16:51:01;25.40;73.90
45969;DHT22;31676;40.444;-3.668;2022-10-17T16:53:27;25.40;73.90
45969;DHT22;31676;40.444;-3.668;2022-10-17T16:56:00;25.40;73.90
45969;DHT22;31676;40.444;-3.668;2022-10-17T16:58:26;25.40;73.90
45969;DHT22;31676;40.444;-3.668;2022-10-17T17:00:55;25.40;73.90
45969;DHT22;31676;40.444;-3.668;2022-10-17T17:03:24;25.40;73.90
45969;DHT22;31676;40.444;-3.668;2022-10-17T17:05:50;25.40;73.90
45969;DHT22;31676;40.444;-3.668;2022-10-17T17:08:16;25.40;73.90
45969;DHT22;31676;40.444;-3.668;2022-10-17T17:10:43;25.40;73.90
45969;DHT22;31676;40.444;-3.668;2022-10-17T17:13:09;25.40;74.00